createdAt,value
2023-06-18T00:01:08.212Z,21.73
2023-06-18T00:03:34.738Z,21.69
2023-06-18T00:06:02.035Z,21.66
2023-06-18T00:08:28.551Z,21.63
2023-06-18T00:10:55.039Z,21.58
2023-06-18T00:13:21.614Z,21.52
2023-06-18T00:15:48.132Z,21.50
2023-06-18T00:18:15.177Z,21.45
2023-06-18T00:20:41.668Z,21.41
2023-06-18T00:23:08.133Z,21.38
2023-06-18T00:25:34.647Z,21.36
2023-06-18T00:28:01.389Z,21.30
2023-06-18T00:30:27.964Z,21.24
2023-06-18T00:32:54.509Z,21.21
2023-06-18T00:35:21.430Z,21.17
2023-06-18T00:37:48.513Z,21.17
2023-06-18T00:40:16.127Z,21.15
2023-06-18T00:42:42.857Z,21.12
2023-06-18T00:45:13.376Z,21.07
2023-06-18T00:47:42.724Z,20.83
2023-06-18T00:50:09.892Z,21.00
2023-06-18T00:52:37.421Z,20.98
2023-06-18T00:55:04.110Z,20.91
2023-06-18T00:57:32.169Z,20.86
2023-06-18T00:59:58.812Z,20.82
2023-06-18T01:02:28.288Z,20.80
2023-06-18T01:04:57.424Z,20.75
2023-06-18T01:07:29.219Z,20.72
2023-06-18T01:09:58.569Z,20.74
2023-06-18T01:12:31.151Z,20.76
2023-06-18T01:14:57.813Z,20.73
2023-06-18T01:17:24.638Z,20.69
2023-06-18T01:20:01.984Z,20.65
2023-06-18T01:22:34.708Z,20.56
2023-06-18T01:25:04.685Z,20.51
2023-06-18T01:27:35.048Z,20.47
2023-06-18T01:30:02.072Z,20.41
2023-06-18T01:32:28.966Z,20.36
2023-06-18T01:34:58.470Z,20.30
2023-06-18T01:37:31.112Z,20.25
2023-06-18T01:39:57.706Z,20.17
2023-06-18T01:42:24.537Z,20.11
2023-06-18T01:44:56.610Z,20.10
2023-06-18T01:47:24.896Z,20.10
2023-06-18T01:49:51.407Z,20.08
2023-06-18T01:52:18.104Z,20.05
2023-06-18T01:54:45.869Z,20.04
2023-06-18T01:57:12.358Z,20.00
2023-06-18T01:59:41.240Z,19.97
2023-06-18T02:02:07.784Z,19.94
2023-06-18T02:04:34.290Z,19.93
2023-06-18T02:07:00.964Z,19.91
2023-06-18T02:09:27.490Z,19.92
2023-06-18T02:11:54.082Z,19.93
2023-06-18T02:14:20.666Z,19.96
2023-06-18T02:16:50.068Z,19.91
2023-06-18T02:19:17.145Z,19.84
2023-06-18T02:21:43.715Z,19.81
2023-06-18T02:24:10.410Z,19.78
2023-06-18T02:26:37.050Z,19.72
2023-06-18T02:29:03.567Z,19.68
2023-06-18T02:31:30.209Z,19.66
2023-06-18T02:33:56.712Z,19.65
2023-06-18T02:36:23.859Z,19.66
2023-06-18T02:38:53.109Z,19.67
2023-06-18T02:41:22.790Z,19.63
2023-06-18T02:43:50.534Z,19.58
2023-06-18T02:46:17.557Z,19.52
2023-06-18T02:48:44.169Z,19.46
2023-06-18T02:51:11.440Z,19.42
2023-06-18T02:53:38.000Z,19.40
2023-06-18T02:56:04.771Z,19.35
2023-06-18T02:58:31.264Z,19.30
2023-06-18T03:01:01.492Z,19.27
2023-06-18T03:03:31.893Z,19.27
2023-06-18T03:05:59.523Z,19.26
2023-06-18T03:08:26.341Z,19.23
2023-06-18T03:10:54.947Z,19.23
2023-06-18T03:13:21.662Z,19.22
2023-06-18T03:15:51.249Z,19.18
2023-06-18T03:18:19.801Z,19.14
2023-06-18T03:20:46.515Z,19.13
2023-06-18T03:23:13.021Z,19.08
2023-06-18T03:25:43.195Z,19.06
2023-06-18T03:28:15.652Z,19.02
2023-06-18T03:30:42.605Z,19.01
2023-06-18T03:33:10.079Z,18.97
2023-06-18T03:35:39.770Z,18.94
2023-06-18T03:38:07.869Z,18.91
2023-06-18T03:40:34.677Z,18.93
2023-06-18T03:43:01.151Z,18.96
2023-06-18T03:45:27.692Z,18.99
2023-06-18T03:47:54.471Z,19.03
2023-06-18T03:50:24.108Z,19.06
2023-06-18T03:52:50.823Z,19.08
2023-06-18T03:55:18.339Z,19.10
2023-06-18T03:57:44.925Z,19.09
2023-06-18T04:00:12.149Z,19.08
2023-06-18T04:02:43.565Z,19.07
2023-06-18T04:05:18.113Z,19.08
2023-06-18T04:07:44.595Z,19.14
2023-06-18T04:10:11.308Z,19.21
2023-06-18T04:12:37.829Z,19.30
2023-06-18T04:15:04.654Z,19.37
2023-06-18T04:17:38.982Z,19.46
2023-06-18T04:20:06.272Z,19.51
2023-06-18T04:22:32.866Z,19.55
2023-06-18T04:24:59.450Z,19.55
2023-06-18T04:27:27.104Z,19.56
2023-06-18T04:29:53.609Z,19.56
2023-06-18T04:32:20.140Z,19.57
2023-06-18T04:34:47.483Z,19.61
2023-06-18T04:37:14.012Z,19.64
2023-06-18T04:39:40.973Z,19.62
2023-06-18T04:42:07.515Z,19.64
2023-06-18T04:44:34.108Z,19.68
2023-06-18T04:47:00.645Z,19.73
2023-06-18T04:49:28.127Z,19.77
2023-06-18T04:51:54.711Z,19.80
2023-06-18T04:54:21.283Z,19.81
2023-06-18T04:56:48.131Z,19.84
2023-06-18T04:59:14.602Z,19.84
2023-06-18T05:01:41.144Z,19.85
2023-06-18T05:04:07.836Z,19.90
2023-06-18T05:06:34.757Z,19.91
2023-06-18T05:09:01.658Z,19.90
2023-06-18T05:11:28.332Z,19.86
2023-06-18T05:13:54.913Z,19.85
2023-06-18T05:16:22.344Z,19.88
2023-06-18T05:18:48.931Z,19.93
2023-06-18T05:21:17.036Z,19.93
2023-06-18T05:23:43.795Z,19.94
2023-06-18T05:26:11.343Z,19.94
2023-06-18T05:28:37.870Z,19.98
2023-06-18T05:31:04.442Z,20.05
2023-06-18T05:33:31.279Z,20.12
2023-06-18T05:35:59.930Z,20.17
2023-06-18T05:38:26.468Z,20.13
2023-06-18T05:40:53.092Z,20.13
2023-06-18T05:43:19.819Z,20.20
2023-06-18T05:45:50.036Z,20.22
2023-06-18T05:48:17.204Z,20.24
2023-06-18T05:50:59.178Z,20.31
2023-06-18T05:53:25.719Z,20.39
2023-06-18T05:55:52.998Z,20.52
2023-06-18T05:58:22.059Z,20.60
2023-06-18T06:00:49.719Z,20.65
2023-06-18T06:03:16.266Z,20.70
2023-06-18T06:05:42.908Z,20.78
2023-06-18T06:08:11.616Z,20.91
2023-06-18T06:10:39.253Z,21.01
2023-06-18T06:13:05.821Z,21.12
2023-06-18T06:15:33.005Z,21.27
2023-06-18T06:17:59.586Z,21.42
2023-06-18T06:20:26.232Z,21.58
2023-06-18T06:22:53.328Z,21.75
2023-06-18T06:25:20.038Z,21.93
2023-06-18T06:27:47.527Z,22.12
2023-06-18T06:30:14.100Z,22.29
2023-06-18T06:32:40.776Z,22.47
2023-06-18T06:35:07.562Z,22.64
2023-06-18T06:37:34.368Z,22.79
2023-06-18T06:40:03.931Z,22.95
2023-06-18T06:42:32.193Z,23.12
2023-06-18T06:45:20.535Z,23.33
2023-06-18T06:48:06.102Z,23.50
2023-06-18T06:51:11.329Z,23.66
2023-06-18T06:53:45.359Z,23.81
2023-06-18T06:56:13.949Z,23.95
2023-06-18T06:58:40.644Z,24.10
2023-06-18T07:01:07.246Z,24.21
2023-06-18T07:03:33.960Z,24.30
2023-06-18T07:06:00.578Z,24.43
2023-06-18T07:08:27.030Z,24.58
2023-06-18T07:10:53.558Z,24.72
2023-06-18T07:13:20.348Z,24.81
2023-06-18T07:15:47.083Z,24.93
2023-06-18T07:18:13.712Z,25.03
2023-06-18T07:20:40.529Z,25.16
2023-06-18T07:23:07.020Z,25.29
2023-06-18T07:25:33.560Z,25.45
2023-06-18T07:28:00.174Z,25.60
2023-06-18T07:30:26.725Z,25.68
2023-06-18T07:32:53.423Z,25.77
2023-06-18T07:35:19.966Z,25.89
2023-06-18T07:37:46.534Z,26.03
2023-06-18T07:40:13.100Z,26.12
2023-06-18T07:42:40.104Z,26.23
2023-06-18T07:45:06.887Z,26.35
2023-06-18T07:47:33.413Z,26.52
2023-06-18T07:50:00.621Z,26.70
2023-06-18T07:52:27.660Z,26.85
2023-06-18T07:54:54.159Z,27.00
2023-06-18T07:57:20.749Z,27.17
2023-06-18T07:59:48.622Z,27.31
2023-06-18T08:02:15.299Z,27.45
2023-06-18T08:04:42.142Z,27.59
2023-06-18T08:07:08.657Z,27.74
2023-06-18T08:09:35.107Z,27.85
2023-06-18T08:12:01.657Z,27.99
2023-06-18T08:14:28.577Z,28.14
2023-06-18T08:16:55.075Z,28.36
2023-06-18T08:19:21.578Z,28.53
2023-06-18T08:21:49.259Z,28.69
2023-06-18T08:24:15.948Z,28.83
2023-06-18T08:26:42.568Z,28.94
2023-06-18T08:29:09.093Z,29.02
2023-06-18T08:31:35.759Z,29.13
2023-06-18T08:34:02.391Z,29.30
2023-06-18T08:36:28.871Z,29.47
2023-06-18T08:38:55.456Z,29.64
2023-06-18T08:41:22.204Z,29.78
2023-06-18T08:43:48.704Z,29.90
2023-06-18T08:46:16.092Z,30.06
2023-06-18T08:48:42.644Z,30.19
2023-06-18T08:51:10.099Z,30.32
2023-06-18T08:53:39.631Z,30.44
2023-06-18T08:56:06.200Z,30.61
2023-06-18T08:58:32.912Z,30.69
2023-06-18T09:01:00.093Z,30.87
2023-06-18T09:03:26.649Z,31.10
2023-06-18T09:05:53.147Z,31.33
2023-06-18T09:08:20.139Z,31.53
2023-06-18T09:10:46.764Z,31.57
2023-06-18T09:13:13.298Z,31.63
2023-06-18T09:15:39.890Z,31.65
2023-06-18T09:18:06.417Z,31.70
2023-06-18T09:20:33.350Z,31.69
2023-06-18T09:22:59.873Z,31.66
2023-06-18T09:25:28.927Z,31.67
2023-06-18T09:27:57.700Z,31.76
2023-06-18T09:30:27.263Z,31.91
2023-06-18T09:32:58.566Z,32.10
2023-06-18T09:35:25.240Z,32.20
2023-06-18T09:37:51.916Z,32.28
2023-06-18T09:40:20.064Z,32.41
2023-06-18T09:42:47.036Z,32.45
2023-06-18T09:45:15.481Z,32.56
2023-06-18T09:47:43.405Z,32.45
2023-06-18T09:50:11.173Z,32.30
2023-06-18T09:52:50.415Z,32.25
2023-06-18T09:55:25.733Z,32.39
2023-06-18T09:57:52.225Z,32.57
2023-06-18T10:00:19.158Z,32.60
2023-06-18T10:02:45.859Z,32.67
2023-06-18T10:05:12.575Z,32.86
2023-06-18T10:07:41.222Z,32.99
2023-06-18T10:10:10.326Z,33.08
2023-06-18T10:12:37.064Z,32.98
2023-06-18T10:15:03.701Z,32.80
2023-06-18T10:17:35.305Z,32.75
2023-06-18T10:20:08.734Z,32.68
2023-06-18T10:22:47.600Z,32.66
2023-06-18T10:25:14.263Z,32.69
2023-06-18T10:27:41.021Z,32.80
2023-06-18T10:30:08.838Z,32.90
2023-06-18T10:32:35.869Z,32.82
2023-06-18T10:35:05.471Z,32.85
2023-06-18T10:37:33.018Z,33.00
2023-06-18T10:39:59.558Z,32.99
2023-06-18T10:42:26.073Z,32.99
2023-06-18T10:44:56.544Z,33.09
2023-06-18T10:47:24.267Z,33.34
2023-06-18T10:50:03.167Z,33.57
2023-06-18T10:52:33.216Z,33.61
2023-06-18T10:55:05.902Z,33.67
2023-06-18T10:57:32.550Z,33.76
2023-06-18T10:59:59.030Z,33.80
2023-06-18T11:02:33.641Z,33.76
2023-06-18T11:05:00.293Z,33.74
2023-06-18T11:07:28.595Z,33.77
2023-06-18T11:09:58.084Z,33.86
2023-06-18T11:12:25.546Z,33.91
2023-06-18T11:15:10.782Z,34.07
2023-06-18T11:17:37.336Z,34.29
2023-06-18T11:20:04.871Z,34.46
2023-06-18T11:22:32.066Z,34.45
2023-06-18T11:24:59.146Z,34.49
2023-06-18T11:27:26.041Z,34.59
2023-06-18T11:29:57.097Z,34.74
2023-06-18T11:32:24.479Z,34.54
2023-06-18T11:34:51.739Z,34.35
2023-06-18T11:37:18.385Z,34.26
2023-06-18T11:39:44.958Z,34.10
2023-06-18T11:42:16.672Z,33.84
2023-06-18T11:44:54.040Z,33.80
2023-06-18T11:47:20.901Z,33.74
2023-06-18T11:49:48.357Z,33.62
2023-06-18T11:52:15.722Z,33.65
2023-06-18T11:54:42.824Z,33.74
2023-06-18T11:57:13.302Z,33.86
2023-06-18T11:59:43.625Z,34.07
2023-06-18T12:02:13.411Z,34.26
2023-06-18T12:04:40.491Z,34.44
2023-06-18T12:07:07.124Z,34.63
2023-06-18T12:09:34.678Z,34.76
2023-06-18T12:12:08.683Z,34.75
2023-06-18T12:14:35.290Z,34.65
2023-06-18T12:17:04.827Z,34.56
2023-06-18T12:19:31.366Z,34.49
2023-06-18T12:21:57.833Z,34.54
2023-06-18T12:24:27.121Z,34.66
2023-06-18T12:26:54.158Z,34.88
2023-06-18T12:29:20.766Z,35.21
2023-06-18T12:32:05.919Z,35.59
2023-06-18T12:34:39.408Z,35.96
2023-06-18T12:37:06.216Z,36.20
2023-06-18T12:39:32.975Z,36.39
2023-06-18T12:41:59.561Z,36.49
2023-06-18T12:44:28.595Z,36.75
2023-06-18T12:46:57.963Z,36.74
2023-06-18T12:49:24.616Z,36.81
2023-06-18T12:51:52.122Z,36.92
2023-06-18T12:54:19.349Z,36.83
2023-06-18T12:56:47.506Z,36.75
2023-06-18T12:59:16.692Z,36.62
2023-06-18T13:01:44.768Z,36.65
2023-06-18T13:04:11.698Z,36.39
2023-06-18T13:06:38.309Z,35.88
2023-06-18T13:09:05.932Z,35.65
2023-06-18T13:11:33.583Z,35.59
2023-06-18T13:14:00.379Z,35.72
2023-06-18T13:16:27.028Z,35.80
2023-06-18T13:18:53.533Z,35.77
2023-06-18T13:21:20.126Z,35.80
2023-06-18T13:23:46.623Z,35.79
2023-06-18T13:26:13.099Z,35.73
2023-06-18T13:28:39.687Z,35.74
2023-06-18T13:31:06.136Z,35.92
2023-06-18T13:33:32.653Z,36.04
2023-06-18T13:35:59.216Z,36.15
2023-06-18T13:38:26.097Z,36.23
2023-06-18T13:40:52.847Z,36.22
2023-06-18T13:43:19.981Z,36.22
2023-06-18T13:45:46.528Z,36.51
2023-06-18T13:48:13.477Z,36.59
2023-06-18T13:50:40.498Z,36.57
2023-06-18T13:53:09.922Z,36.55
2023-06-18T13:55:36.700Z,36.40
2023-06-18T13:58:03.232Z,36.39
2023-06-18T14:00:29.884Z,36.49
2023-06-18T14:02:56.716Z,36.22
2023-06-18T14:05:23.712Z,36.36
2023-06-18T14:07:50.566Z,36.34
2023-06-18T14:10:17.220Z,36.35
2023-06-18T14:12:43.836Z,36.45
2023-06-18T14:15:10.729Z,36.65
2023-06-18T14:17:37.361Z,36.77
2023-06-18T14:20:04.400Z,36.56
2023-06-18T14:22:30.963Z,36.47
2023-06-18T14:24:59.678Z,36.32
2023-06-18T14:27:26.575Z,36.24
2023-06-18T14:29:53.365Z,36.03
2023-06-18T14:32:23.577Z,35.73
2023-06-18T14:34:51.978Z,35.64
2023-06-18T14:37:23.077Z,35.57
2023-06-18T14:39:50.207Z,35.47
2023-06-18T14:42:16.769Z,35.43
2023-06-18T14:44:43.960Z,35.49
2023-06-18T14:47:10.515Z,35.38
2023-06-18T14:49:37.147Z,35.29
2023-06-18T14:52:03.708Z,35.22
2023-06-18T14:54:30.254Z,35.10
2023-06-18T14:56:57.028Z,34.89
2023-06-18T14:59:23.570Z,34.84
2023-06-18T15:01:50.274Z,34.85
2023-06-18T15:04:17.360Z,34.82
2023-06-18T15:06:45.569Z,34.74
2023-06-18T15:09:13.683Z,34.80
2023-06-18T15:11:40.273Z,34.85
2023-06-18T15:14:06.886Z,34.81
2023-06-18T15:16:35.646Z,34.77
2023-06-18T15:19:02.231Z,34.78
2023-06-18T15:21:28.734Z,34.85
2023-06-18T15:23:55.882Z,34.85
2023-06-18T15:26:22.732Z,34.88
2023-06-18T15:28:49.318Z,34.93
2023-06-18T15:31:16.294Z,34.98
2023-06-18T15:33:42.927Z,34.99
2023-06-18T15:36:09.828Z,34.96
2023-06-18T15:38:36.555Z,35.05
2023-06-18T15:41:03.425Z,34.97
2023-06-18T15:43:30.596Z,34.92
2023-06-18T15:45:57.150Z,34.43
2023-06-18T15:48:24.232Z,34.71
2023-06-18T15:50:51.441Z,34.57
2023-06-18T15:53:19.350Z,34.53
2023-06-18T15:55:48.092Z,34.51
2023-06-18T15:58:15.244Z,34.52
2023-06-18T16:00:41.804Z,34.54
2023-06-18T16:03:08.787Z,34.45
2023-06-18T16:05:35.392Z,34.44
2023-06-18T16:08:01.894Z,34.46
2023-06-18T16:10:28.508Z,34.41
2023-06-18T16:12:54.953Z,34.36
2023-06-18T16:15:21.813Z,34.30
2023-06-18T16:17:48.625Z,34.26
2023-06-18T16:20:15.425Z,34.18
2023-06-18T16:22:41.905Z,34.11
2023-06-18T16:25:08.601Z,34.06
2023-06-18T16:27:35.180Z,34.01
2023-06-18T16:30:01.699Z,33.97
2023-06-18T16:32:28.941Z,33.83
2023-06-18T16:34:55.623Z,33.79
2023-06-18T16:37:22.210Z,33.79
2023-06-18T16:39:48.760Z,33.75
2023-06-18T16:42:15.242Z,33.71
2023-06-18T16:44:41.829Z,33.57
2023-06-18T16:47:08.330Z,33.53
2023-06-18T16:49:35.896Z,33.50
2023-06-18T16:52:04.704Z,33.49
2023-06-18T16:54:31.429Z,33.49
2023-06-18T16:56:58.100Z,33.49
2023-06-18T16:59:25.050Z,33.43
2023-06-18T17:01:51.708Z,33.39
2023-06-18T17:04:20.886Z,33.40
2023-06-18T17:06:47.655Z,33.35
2023-06-18T17:09:14.278Z,33.23
2023-06-18T17:11:41.364Z,33.16
2023-06-18T17:14:08.031Z,33.07
2023-06-18T17:16:34.690Z,33.04
2023-06-18T17:19:01.339Z,33.00
2023-06-18T17:21:27.871Z,32.95
2023-06-18T17:23:54.423Z,32.92
2023-06-18T17:26:20.956Z,32.86
2023-06-18T17:28:47.773Z,32.83
2023-06-18T17:31:14.424Z,32.73
2023-06-18T17:33:41.423Z,32.70
2023-06-18T17:36:08.106Z,32.65
2023-06-18T17:38:34.585Z,32.63
2023-06-18T17:41:01.739Z,32.59
2023-06-18T17:43:28.232Z,32.53
2023-06-18T17:46:14.628Z,32.49
2023-06-18T17:48:41.590Z,32.42
2023-06-18T17:51:08.173Z,32.38
2023-06-18T17:53:34.672Z,32.31
2023-06-18T17:56:01.208Z,32.27
2023-06-18T17:58:27.744Z,32.23
2023-06-18T18:00:54.535Z,32.19
2023-06-18T18:03:21.528Z,32.13
2023-06-18T18:05:48.089Z,32.11
2023-06-18T18:08:14.511Z,32.08
2023-06-18T18:10:41.008Z,32.05
2023-06-18T18:13:07.559Z,32.01
2023-06-18T18:15:34.181Z,31.96
2023-06-18T18:18:00.718Z,31.91
2023-06-18T18:20:27.258Z,31.88
2023-06-18T18:22:53.747Z,31.86
2023-06-18T18:25:20.386Z,31.84
2023-06-18T18:27:46.930Z,31.81
2023-06-18T18:30:13.651Z,31.75
2023-06-18T18:32:40.171Z,31.73
2023-06-18T18:35:06.865Z,31.67
2023-06-18T18:37:33.385Z,31.64
2023-06-18T18:39:59.877Z,31.58
2023-06-18T18:42:26.459Z,31.54
2023-06-18T18:44:52.912Z,31.55
2023-06-18T18:47:19.421Z,31.14
2023-06-18T18:49:47.089Z,31.56
2023-06-18T18:52:13.704Z,31.53
2023-06-18T18:54:40.301Z,31.50
2023-06-18T18:57:06.947Z,31.47
2023-06-18T18:59:33.421Z,31.42
2023-06-18T19:02:13.044Z,31.39
2023-06-18T19:04:39.512Z,31.35
2023-06-18T19:07:06.272Z,31.31
2023-06-18T19:09:32.777Z,31.28
2023-06-18T19:12:00.549Z,31.25
2023-06-18T19:14:27.395Z,31.19
2023-06-18T19:16:53.956Z,31.11
2023-06-18T19:19:20.410Z,31.01
2023-06-18T19:21:47.596Z,30.92
2023-06-18T19:24:14.163Z,30.84
2023-06-18T19:26:40.639Z,30.79
2023-06-18T19:29:07.997Z,30.78
2023-06-18T19:31:35.625Z,30.78
2023-06-18T19:34:02.148Z,30.74
2023-06-18T19:36:28.674Z,30.69
2023-06-18T19:38:55.173Z,30.64
2023-06-18T19:41:22.033Z,30.58
2023-06-18T19:43:48.609Z,30.51
2023-06-18T19:46:15.137Z,30.43
2023-06-18T19:48:41.678Z,30.31
2023-06-18T19:51:08.214Z,30.23
2023-06-18T19:53:34.877Z,30.14
2023-06-18T19:56:01.715Z,30.10
2023-06-18T19:58:28.852Z,30.03
2023-06-18T20:00:55.662Z,29.98
2023-06-18T20:03:22.426Z,29.92
2023-06-18T20:05:49.884Z,29.84
2023-06-18T20:08:16.613Z,29.79
2023-06-18T20:10:43.097Z,29.76
2023-06-18T20:13:09.621Z,29.73
2023-06-18T20:15:37.237Z,29.65
2023-06-18T20:18:04.240Z,29.65
2023-06-18T20:20:30.816Z,29.63
2023-06-18T20:22:57.389Z,29.62
2023-06-18T20:25:23.918Z,29.60
2023-06-18T20:27:50.411Z,29.62
2023-06-18T20:30:16.948Z,29.61
2023-06-18T20:32:43.439Z,29.55
2023-06-18T20:35:09.977Z,29.51
2023-06-18T20:37:36.534Z,29.44
2023-06-18T20:40:03.213Z,29.36
2023-06-18T20:42:29.778Z,29.30
2023-06-18T20:44:56.296Z,29.21
2023-06-18T20:47:22.880Z,29.16
2023-06-18T20:49:49.388Z,29.08
2023-06-18T20:52:15.956Z,29.10
2023-06-18T20:54:43.369Z,29.10
2023-06-18T20:57:09.994Z,29.07
2023-06-18T20:59:36.696Z,29.05
2023-06-18T21:02:03.248Z,28.98
2023-06-18T21:04:29.791Z,28.96
2023-06-18T21:06:56.312Z,28.94
2023-06-18T21:09:22.889Z,28.95
2023-06-18T21:11:49.425Z,28.99
2023-06-18T21:14:16.240Z,29.08
2023-06-18T21:16:42.849Z,29.07
2023-06-18T21:19:09.392Z,29.07
2023-06-18T21:21:35.883Z,29.15
2023-06-18T21:24:02.362Z,29.20
2023-06-18T21:26:29.554Z,29.21
2023-06-18T21:28:56.069Z,29.16
2023-06-18T21:31:22.735Z,29.18
2023-06-18T21:33:49.355Z,29.18
2023-06-18T21:36:15.933Z,29.21
2023-06-18T21:38:45.358Z,29.21
2023-06-18T21:41:11.817Z,29.25
2023-06-18T21:43:38.367Z,29.30
2023-06-18T21:46:04.965Z,29.29
2023-06-18T21:48:31.520Z,29.24
2023-06-18T21:51:01.697Z,29.24
2023-06-18T21:53:28.647Z,29.25
2023-06-18T21:55:55.220Z,29.27
2023-06-18T21:58:21.912Z,29.27
2023-06-18T22:00:49.144Z,29.25
2023-06-18T22:03:15.754Z,29.25
2023-06-18T22:05:42.347Z,29.25
2023-06-18T22:08:23.064Z,29.20
2023-06-18T22:10:51.088Z,29.24
2023-06-18T22:13:17.626Z,29.24
2023-06-18T22:15:44.212Z,29.26
2023-06-18T22:18:10.717Z,29.22
2023-06-18T22:20:37.151Z,29.19
2023-06-18T22:23:04.428Z,29.14
2023-06-18T22:25:32.326Z,29.10
2023-06-18T22:27:58.869Z,29.05
2023-06-18T22:30:25.696Z,29.01
2023-06-18T22:32:52.467Z,28.94
2023-06-18T22:35:19.031Z,28.90
2023-06-18T22:37:45.599Z,28.86
2023-06-18T22:40:12.508Z,28.83
2023-06-18T22:42:39.022Z,28.83
2023-06-18T22:45:05.747Z,28.82
2023-06-18T22:47:32.284Z,28.81
2023-06-18T22:49:58.913Z,28.79
2023-06-18T22:52:25.453Z,28.70
2023-06-18T22:54:51.896Z,28.59
2023-06-18T22:57:18.595Z,28.50
2023-06-18T22:59:45.119Z,28.51
2023-06-18T23:02:11.646Z,28.55
2023-06-18T23:04:38.102Z,28.60
2023-06-18T23:07:04.576Z,28.62
2023-06-18T23:09:31.042Z,28.63
2023-06-18T23:11:57.673Z,28.64
2023-06-18T23:14:24.148Z,28.67
2023-06-18T23:16:50.751Z,28.66
2023-06-18T23:19:17.310Z,28.64
2023-06-18T23:21:47.853Z,28.62
2023-06-18T23:24:14.592Z,28.59
2023-06-18T23:26:41.076Z,28.55
2023-06-18T23:29:10.767Z,28.53
2023-06-18T23:31:40.780Z,28.49
2023-06-18T23:34:07.753Z,28.47
2023-06-18T23:36:34.780Z,28.46
2023-06-18T23:39:02.169Z,28.44
2023-06-18T23:41:28.704Z,28.42
2023-06-18T23:43:55.222Z,28.39
2023-06-18T23:46:22.439Z,28.39
2023-06-18T23:48:49.116Z,28.38
2023-06-18T23:51:15.610Z,28.29
2023-06-18T23:53:42.050Z,28.17
2023-06-18T23:56:08.527Z,28.04
2023-06-18T23:58:34.971Z,28.01
